Time;durP1;ratioP1;P1;durP2;ratioP2;P2;SDS_P1;SDS_P2;PMS_P1;PMS_P2;Temp;Humidity;BMP_temperature;BMP_pressure;BME280_temperature;BME280_humidity;BME280_pressure;Samples;Min_cycle;Max_cycle;Signal;HPM_P1;HPM_P2
2021/05/07 00:01:08;;;;;;;9.25;8.48;;;8.80;99.90;;;;;;4959397;28;20188;-83
2021/05/07 00:03:34;;;;;;;10.75;9.82;;;8.80;99.90;;;;;;4979673;28;20164;-82
2021/05/07 00:06:03;;;;;;;12.18;11.18;;;8.80;99.90;;;;;;4946693;28;20632;-82
2021/05/07 00:08:32;;;;;;;10.90;10.00;;;8.90;99.90;;;;;;4959159;28;20262;-82
2021/05/07 00:11:00;;;;;;;11.27;10.30;;;8.90;99.90;;;;;;4974584;28;20570;-82
2021/05/07 00:13:26;;;;;;;11.18;10.27;;;8.90;99.90;;;;;;4959126;28;20171;-82
2021/05/07 00:15:52;;;;;;;11.63;10.63;;;8.80;99.90;;;;;;4959223;28;20537;-82
2021/05/07 00:18:18;;;;;;;11.33;10.33;;;8.80;99.90;;;;;;4961280;28;20621;-82
2021/05/07 00:20:44;;;;;;;11.87;10.73;;;8.70;99.90;;;;;;4980152;28;20190;-82
2021/05/07 00:23:10;;;;;;;11.43;10.32;;;8.70;99.90;;;;;;4959464;28;20183;-82
2021/05/07 00:25:36;;;;;;;11.83;10.73;;;8.60;99.90;;;;;;4981772;28;20172;-82
2021/05/07 00:28:04;;;;;;;10.90;10.00;;;8.60;99.90;;;;;;4948511;28;20986;-85
2021/05/07 00:30:30;;;;;;;11.55;10.65;;;8.60;99.90;;;;;;4962665;28;20585;-83
2021/05/07 00:32:56;;;;;;;12.65;11.55;;;8.50;99.90;;;;;;4978294;28;20204;-83
2021/05/07 00:35:22;;;;;;;12.43;11.20;;;8.50;99.90;;;;;;4942665;28;20581;-82
2021/05/07 00:37:48;;;;;;;12.77;11.60;;;8.50;99.90;;;;;;4957929;28;20579;-82
2021/05/07 00:40:14;;;;;;;11.48;10.48;;;8.50;99.90;;;;;;4957792;28;20880;-82
2021/05/07 00:42:40;;;;;;;13.57;12.30;;;8.50;99.90;;;;;;4975472;28;20187;-82
2021/05/07 00:45:08;;;;;;;13.30;12.00;;;8.50;99.90;;;;;;4975860;28;20801;-82
2021/05/07 00:47:45;;;;;;;11.88;10.77;;;8.50;99.90;;;;;;4957901;28;20545;-83
2021/05/07 00:50:12;;;;;;;13.02;12.02;;;8.50;99.90;;;;;;4925946;28;20590;-82
2021/05/07 00:52:40;;;;;;;12.48;11.27;;;8.50;99.90;;;;;;4975058;28;20251;-83
2021/05/07 00:55:08;;;;;;;12.15;11.05;;;8.50;99.90;;;;;;4974816;28;20230;-82
2021/05/07 00:57:35;;;;;;;12.98;11.77;;;8.50;99.90;;;;;;4974381;28;20195;-82
2021/05/07 01:00:01;;;;;;;12.32;11.18;;;8.50;99.90;;;;;;4957233;28;20614;-82
2021/05/07 01:02:29;;;;;;;12.15;11.10;;;8.50;99.90;;;;;;4973513;28;20179;-82
2021/05/07 01:04:54;;;;;;;12.37;11.40;;;8.50;99.90;;;;;;4957149;28;20275;-82
2021/05/07 01:07:22;;;;;;;12.60;11.50;;;8.50;99.90;;;;;;4940894;28;20222;-82
2021/05/07 01:09:51;;;;;;;12.30;11.20;;;8.50;99.90;;;;;;4943418;28;20655;-82
2021/05/07 01:12:18;;;;;;;12.00;10.90;;;8.40;99.90;;;;;;4978340;23;20660;-79
2021/05/07 01:15:03;;;;;;;13.57;12.38;;;8.40;99.90;;;;;;4940575;28;20172;-79
2021/05/07 01:17:31;;;;;;;12.02;10.93;;;8.40;99.90;;;;;;4956366;28;20164;-79
2021/05/07 01:20:05;;;;;;;12.05;11.00;;;8.30;99.90;;;;;;4974021;28;20216;-79
2021/05/07 01:22:31;;;;;;;11.27;10.30;;;8.20;99.90;;;;;;4975512;28;20622;-78
2021/05/07 01:24:56;;;;;;;10.87;9.93;;;8.20;99.90;;;;;;4959137;28;20207;-78
2021/05/07 01:27:22;;;;;;;16.70;12.60;;;8.20;99.90;;;;;;4956725;28;20313;-79
2021/05/07 01:29:48;;;;;;;12.50;11.40;;;8.10;99.90;;;;;;4974745;28;20184;-78
2021/05/07 01:32:14;;;;;;;12.97;11.67;;;8.10;99.90;;;;;;4956627;28;20184;-78
2021/05/07 01:34:40;;;;;;;12.80;11.50;;;8.10;99.90;;;;;;4973578;28;20250;-79
2021/05/07 01:37:05;;;;;;;12.33;11.00;;;8.10;99.90;;;;;;4973179;28;20570;-79
2021/05/07 01:39:35;;;;;;;13.82;12.50;;;8.10;99.90;;;;;;4973502;28;20602;-79
2021/05/07 01:42:01;;;;;;;12.32;11.13;;;8.10;99.90;;;;;;4956097;28;20184;-79
2021/05/07 01:44:29;;;;;;;13.37;12.17;;;8.20;99.90;;;;;;4956344;28;20303;-79
2021/05/07 01:46:55;;;;;;;12.25;11.15;;;8.20;99.90;;;;;;4973024;28;20675;-79
2021/05/07 01:49:21;;;;;;;12.00;10.90;;;8.30;99.90;;;;;;4973502;28;20299;-78
2021/05/07 01:51:46;;;;;;;12.33;11.03;;;8.30;99.90;;;;;;4973118;28;20606;-78
2021/05/07 01:54:12;;;;;;;12.03;10.87;;;8.40;99.90;;;;;;4956175;28;20171;-78
2021/05/07 01:56:38;;;;;;;12.50;11.20;;;8.40;99.90;;;;;;4939917;28;20193;-78
2021/05/07 01:59:04;;;;;;;13.15;11.95;;;8.40;99.90;;;;;;4940608;28;20196;-78
2021/05/07 02:01:30;;;;;;;11.83;10.70;;;8.50;99.90;;;;;;4962495;28;20171;-78
2021/05/07 02:03:58;;;;;;;11.02;9.85;;;8.50;99.90;;;;;;4956008;28;20575;-79
2021/05/07 02:06:36;;;;;;;11.35;10.35;;;8.50;99.90;;;;;;4971555;28;20175;-79
2021/05/07 02:09:02;;;;;;;12.53;11.43;;;8.50;99.90;;;;;;4955761;28;20226;-79
2021/05/07 02:11:28;;;;;;;12.80;11.65;;;8.50;99.90;;;;;;4972830;28;20650;-79
2021/05/07 02:13:54;;;;;;;13.40;12.20;;;8.60;99.90;;;;;;4973397;28;20229;-79
2021/05/07 02:16:20;;;;;;;11.43;10.35;;;8.60;99.90;;;;;;4955837;28;20666;-78
2021/05/07 02:18:48;;;;;;;12.77;11.63;;;8.60;99.90;;;;;;4956119;28;20253;-78
2021/05/07 02:21:15;;;;;;;13.38;12.02;;;8.60;99.90;;;;;;4955990;28;20180;-79
2021/05/07 02:23:41;;;;;;;14.30;12.90;;;8.60;99.90;;;;;;4955764;28;20630;-78
2021/05/07 02:26:07;;;;;;;13.32;12.13;;;8.60;99.90;;;;;;4955654;28;21201;-80
2021/05/07 02:28:42;;;;;;;12.93;11.73;;;8.50;99.90;;;;;;4955759;28;20183;-79
2021/05/07 02:31:09;;;;;;;13.70;12.30;;;8.50;99.90;;;;;;4955855;28;20178;-79
2021/05/07 02:33:38;;;;;;;14.88;13.43;;;8.50;99.90;;;;;;4955639;28;20188;-79
2021/05/07 02:36:06;;;;;;;15.13;13.63;;;8.50;99.90;;;;;;4955896;28;20193;-79
2021/05/07 02:38:34;;;;;;;12.98;11.77;;;8.50;99.90;;;;;;4943706;28;20203;-79
2021/05/07 02:41:00;;;;;;;14.95;13.45;;;8.60;99.90;;;;;;4939617;28;20190;-79
2021/05/07 02:43:29;;;;;;;16.50;14.90;;;8.60;99.90;;;;;;4952473;28;20222;-79
2021/05/07 02:45:54;;;;;;;15.63;14.13;;;8.60;99.90;;;;;;4944471;29;20172;-79
2021/05/07 02:48:20;;;;;;;15.53;14.00;;;8.60;99.90;;;;;;4954289;28;20222;-78
2021/05/07 02:50:46;;;;;;;16.60;14.80;;;8.50;99.90;;;;;;4955416;28;20602;-79
2021/05/07 02:53:13;;;;;;;16.40;14.85;;;8.50;99.90;;;;;;4939718;28;20614;-79
2021/05/07 02:55:39;;;;;;;14.98;13.48;;;8.50;99.90;;;;;;4955651;28;20179;-79
2021/05/07 02:58:05;;;;;;;16.27;14.77;;;8.40;99.90;;;;;;4955300;28;20211;-79
2021/05/07 03:00:31;;;;;;;17.53;15.73;;;8.40;99.90;;;;;;4956043;28;20513;-79
2021/05/07 03:02:56;;;;;;;17.27;15.63;;;8.30;99.90;;;;;;4956125;28;20190;-78
2021/05/07 03:05:22;;;;;;;16.73;15.00;;;8.20;99.90;;;;;;4973317;28;20529;-79
2021/05/07 03:07:48;;;;;;;16.50;14.80;;;8.20;99.90;;;;;;4972878;28;20299;-79
2021/05/07 03:10:14;;;;;;;16.35;14.82;;;8.10;99.90;;;;;;4956252;28;20168;-79
2021/05/07 03:12:39;;;;;;;17.77;16.07;;;8.10;99.90;;;;;;4961186;28;20208;-79
2021/05/07 03:15:07;;;;;;;18.63;16.30;;;8.00;99.90;;;;;;4970513;28;20168;-78
2021/05/07 03:17:33;;;;;;;17.88;16.13;;;7.90;99.90;;;;;;4968409;28;20179;-79
2021/05/07 03:19:59;;;;;;;17.70;14.95;;;7.90;99.90;;;;;;4969250;28;20215;-79
2021/05/07 03:22:24;;;;;;;17.27;15.20;;;7.90;99.90;;;;;;4972358;28;20287;-79
2021/05/07 03:24:50;;;;;;;17.10;15.50;;;7.80;99.90;;;;;;4974189;28;20176;-79
2021/05/07 03:27:17;;;;;;;18.53;16.53;;;7.80;99.90;;;;;;4974731;28;20168;-79
2021/05/07 03:29:43;;;;;;;18.85;17.00;;;7.70;99.90;;;;;;4971431;28;20184;-80
2021/05/07 03:32:08;;;;;;;18.77;16.80;;;7.70;99.90;;;;;;4973683;28;20215;-79
2021/05/07 03:34:34;;;;;;;18.80;16.90;;;7.60;99.90;;;;;;4974297;28;20171;-77
2021/05/07 03:37:00;;;;;;;18.80;16.90;;;7.60;99.90;;;;;;4991301;28;20171;-78
2021/05/07 03:39:26;;;;;;;19.80;16.02;;;7.60;99.90;;;;;;4983835;28;20202;-77
2021/05/07 03:41:52;;;;;;;19.27;17.27;;;7.60;99.90;;;;;;4964051;28;20548;-77
2021/05/07 03:44:18;;;;;;;19.00;17.10;;;7.60;99.90;;;;;;4964617;28;20270;-77
2021/05/07 03:46:43;;;;;;;19.80;17.70;;;7.60;99.90;;;;;;4981821;28;20179;-77
2021/05/07 03:49:09;;;;;;;17.80;16.07;;;7.60;99.90;;;;;;4946671;28;20191;-77
2021/05/07 03:51:35;;;;;;;20.10;18.10;;;7.60;99.90;;;;;;4988554;28;20175;-76
2021/05/07 03:54:00;;;;;;;18.07;15.40;;;7.60;99.90;;;;;;4959658;28;20611;-77
2021/05/07 03:56:26;;;;;;;19.07;17.17;;;7.60;99.90;;;;;;4976346;28;20979;-77
2021/05/07 03:58:52;;;;;;;19.10;16.60;;;7.60;99.90;;;;;;4946440;29;21000;-77
2021/05/07 04:01:18;;;;;;;17.80;16.00;;;7.60;99.90;;;;;;4938897;28;20605;-77
2021/05/07 04:03:44;;;;;;;19.80;17.70;;;7.60;99.90;;;;;;4938649;29;20542;-77
2021/05/07 04:06:15;;;;;;;16.60;15.00;;;7.60;99.90;;;;;;4961365;28;20176;-77
2021/05/07 04:08:43;;;;;;;18.10;16.27;;;7.60;99.90;;;;;;4938602;29;20180;-77
2021/05/07 04:11:56;;;;;;;18.65;16.80;;;7.60;99.90;;;;;;4956278;29;20215;-77
2021/05/07 04:13:58;;;;;;;19.95;17.83;;;7.60;99.90;;;;;;4948179;28;20192;-77
2021/05/07 04:16:23;;;;;;;17.60;15.70;;;7.60;99.90;;;;;;4922635;29;20187;-78
2021/05/07 04:18:52;;;;;;;17.87;16.07;;;7.70;99.90;;;;;;4938764;29;20284;-76
2021/05/07 04:21:18;;;;;;;18.67;16.73;;;7.70;99.90;;;;;;4938659;28;20176;-76
2021/05/07 04:23:43;;;;;;;17.63;15.60;;;7.70;99.90;;;;;;4923103;29;20210;-76
2021/05/07 04:26:09;;;;;;;18.60;16.70;;;7.70;99.90;;;;;;4938718;29;20176;-76
2021/05/07 04:28:35;;;;;;;22.00;17.90;;;7.80;99.90;;;;;;4960264;29;20603;-76
2021/05/07 04:31:01;;;;;;;20.23;18.23;;;7.80;99.90;;;;;;4955548;28;20637;-76
2021/05/07 04:33:26;;;;;;;19.23;17.33;;;7.80;99.90;;;;;;4955592;28;20648;-76
2021/05/07 04:35:52;;;;;;;19.10;17.10;;;7.80;99.90;;;;;;4938415;29;20700;-76
2021/05/07 04:38:18;;;;;;;18.30;16.47;;;7.90;99.90;;;;;;4955021;29;20556;-78
2021/05/07 04:40:43;;;;;;;20.27;18.07;;;7.90;99.90;;;;;;4954159;29;20645;-77
2021/05/07 04:43:09;;;;;;;20.37;18.30;;;8.00;99.90;;;;;;4938200;29;20669;-76
2021/05/07 04:45:35;;;;;;;19.40;17.03;;;8.00;99.90;;;;;;4955392;29;20184;-76
2021/05/07 04:48:01;;;;;;;19.47;17.47;;;8.10;99.90;;;;;;4937866;29;20180;-76
2021/05/07 04:50:27;;;;;;;20.42;18.27;;;8.10;99.90;;;;;;4937813;29;21166;-76
2021/05/07 04:52:53;;;;;;;20.73;18.52;;;8.20;99.90;;;;;;4955284;28;20192;-76
2021/05/07 04:55:19;;;;;;;20.10;18.00;;;8.20;99.90;;;;;;4938044;29;20509;-76
2021/05/07 04:57:45;;;;;;;21.33;18.70;;;8.20;99.90;;;;;;4937643;29;20172;-76
2021/05/07 05:00:11;;;;;;;21.30;19.10;;;8.30;99.90;;;;;;4955314;29;20200;-76
2021/05/07 05:02:37;;;;;;;19.77;17.23;;;8.40;99.90;;;;;;4954969;28;20202;-76
2021/05/07 05:05:04;;;;;;;17.10;15.30;;;8.40;99.90;;;;;;4955937;29;20168;-76
2021/05/07 05:07:30;;;;;;;20.33;15.75;;;8.50;99.90;;;;;;4959352;29;20569;-77
2021/05/07 05:09:55;;;;;;;20.50;18.30;;;8.50;99.90;;;;;;4938009;29;20267;-76
2021/05/07 05:12:21;;;;;;;20.17;17.53;;;8.60;99.90;;;;;;4937592;29;20212;-77
2021/05/07 05:14:47;;;;;;;19.77;17.07;;;8.70;99.90;;;;;;4954813;29;20172;-76
2021/05/07 05:17:13;;;;;;;17.67;15.63;;;8.70;99.90;;;;;;4937348;29;20576;-76
2021/05/07 05:19:38;;;;;;;19.67;17.73;;;8.70;99.90;;;;;;4954980;29;20287;-76
2021/05/07 05:22:04;;;;;;;18.60;16.43;;;8.80;99.90;;;;;;4938025;29;20281;-75
2021/05/07 05:24:30;;;;;;;18.85;17.05;;;8.90;99.90;;;;;;4937939;29;20987;-76
2021/05/07 05:26:56;;;;;;;18.90;17.07;;;9.00;99.90;;;;;;4954585;29;20172;-76
2021/05/07 05:29:22;;;;;;;20.33;18.20;;;9.00;99.90;;;;;;4938155;29;20169;-76
2021/05/07 05:31:48;;;;;;;20.55;18.52;;;9.10;99.90;;;;;;4955284;28;20600;-76
2021/05/07 05:34:14;;;;;;;18.53;16.70;;;9.20;99.90;;;;;;4939170;29;20219;-75
2021/05/07 05:36:45;;;;;;;20.10;18.10;;;9.20;99.90;;;;;;4938774;29;20196;-76
2021/05/07 05:39:13;;;;;;;19.67;17.88;;;9.30;99.90;;;;;;4939216;29;20216;-76
2021/05/07 05:41:40;;;;;;;18.48;16.52;;;9.50;99.90;;;;;;4938738;28;20599;-76
2021/05/07 05:44:09;;;;;;;17.73;15.98;;;9.50;99.90;;;;;;4958151;29;20172;-76
2021/05/07 05:46:36;;;;;;;18.27;16.50;;;9.70;99.90;;;;;;4957510;29;20179;-76
2021/05/07 05:49:03;;;;;;;19.92;18.02;;;9.80;99.90;;;;;;4941634;29;20210;-76
2021/05/07 05:51:29;;;;;;;21.52;19.33;;;10.00;99.90;;;;;;4940147;28;20542;-76
2021/05/07 05:53:55;;;;;;;20.17;18.17;;;10.30;99.90;;;;;;4941107;29;20188;-76
2021/05/07 05:56:21;;;;;;;19.50;17.47;;;10.70;99.90;;;;;;4940552;29;20204;-76
2021/05/07 05:58:46;;;;;;;21.13;18.87;;;10.90;99.90;;;;;;4940218;29;20577;-76
2021/05/07 06:01:12;;;;;;;21.20;17.37;;;11.10;99.90;;;;;;4941077;29;20572;-76
2021/05/07 06:03:38;;;;;;;21.20;18.27;;;11.20;99.90;;;;;;4939535;29;20635;-76
2021/05/07 06:06:04;;;;;;;18.50;16.53;;;11.20;99.90;;;;;;4938264;29;20565;-77
2021/05/07 06:08:30;;;;;;;19.47;16.90;;;11.20;99.90;;;;;;4940068;29;20925;-77
2021/05/07 06:10:56;;;;;;;18.33;16.43;;;11.20;99.90;;;;;;4942812;29;20173;-76
2021/05/07 06:13:22;;;;;;;18.27;16.50;;;11.20;99.90;;;;;;4952066;28;21052;-77
2021/05/07 06:15:47;;;;;;;20.43;18.50;;;11.10;99.90;;;;;;4954904;29;20176;-76
2021/05/07 06:18:13;;;;;;;19.30;17.30;;;11.00;99.90;;;;;;4952795;29;20655;-76
2021/05/07 06:20:39;;;;;;;19.10;17.00;;;10.90;99.90;;;;;;4957110;29;20164;-77
2021/05/07 06:23:04;;;;;;;17.80;16.00;;;10.80;99.90;;;;;;4936006;29;20192;-77
2021/05/07 06:25:30;;;;;;;16.97;15.27;;;10.60;99.90;;;;;;4936035;29;20220;-78
2021/05/07 06:27:56;;;;;;;16.87;15.17;;;10.50;99.90;;;;;;4952892;29;20172;-76
2021/05/07 06:30:22;;;;;;;16.33;14.53;;;10.40;99.90;;;;;;4950701;29;20652;-76
2021/05/07 06:32:47;;;;;;;17.87;15.40;;;10.30;99.90;;;;;;4938549;29;20224;-76
2021/05/07 06:35:14;;;;;;;14.97;13.57;;;10.10;99.90;;;;;;4947183;28;20623;-76
2021/05/07 06:37:40;;;;;;;14.07;12.60;;;10.00;99.90;;;;;;4958684;28;20227;-76
2021/05/07 06:40:07;;;;;;;11.63;10.50;;;9.80;99.90;;;;;;4953477;29;20211;-76
2021/05/07 06:42:36;;;;;;;9.20;8.30;;;9.60;99.90;;;;;;4938280;28;20191;-77
2021/05/07 06:45:08;;;;;;;9.57;7.65;;;9.50;99.90;;;;;;4972726;28;20168;-76
2021/05/07 06:47:33;;;;;;;9.02;7.93;;;9.40;99.90;;;;;;4954937;28;20183;-77
2021/05/07 06:49:59;;;;;;;7.73;6.90;;;9.30;99.90;;;;;;4962525;28;20628;-76
2021/05/07 06:52:25;;;;;;;8.23;7.47;;;9.20;99.90;;;;;;4953097;28;20596;-76
2021/05/07 06:54:51;;;;;;;7.63;7.00;;;9.20;99.90;;;;;;4939049;29;20590;-76
2021/05/07 06:57:17;;;;;;;9.98;8.75;;;9.20;99.90;;;;;;4942480;29;20292;-76
2021/05/07 06:59:47;;;;;;;8.30;7.50;;;9.20;99.90;;;;;;4957729;29;20298;-77
2021/05/07 07:02:14;;;;;;;7.47;6.88;;;9.20;99.90;;;;;;4924445;29;20942;-77
2021/05/07 07:04:39;;;;;;;6.82;6.15;;;9.20;99.90;;;;;;4940732;29;20231;-78
2021/05/07 07:07:05;;;;;;;8.13;7.33;;;9.20;99.90;;;;;;4967087;28;20172;-77
2021/05/07 07:09:31;;;;;;;8.87;6.53;;;9.20;99.90;;;;;;4946249;29;20184;-76
2021/05/07 07:11:57;;;;;;;8.23;7.20;;;9.20;99.90;;;;;;4941019;29;20268;-77
2021/05/07 07:14:22;;;;;;;7.77;7.07;;;9.20;99.90;;;;;;4982017;23;20658;-77
2021/05/07 07:16:48;;;;;;;10.20;7.33;;;9.20;99.90;;;;;;5026502;28;20578;-76
2021/05/07 07:19:14;;;;;;;8.77;7.87;;;9.30;99.90;;;;;;4997536;28;20685;-76
2021/05/07 07:21:40;;;;;;;9.33;8.43;;;9.30;99.90;;;;;;4981255;28;20545;-77
2021/05/07 07:24:06;;;;;;;10.10;9.03;;;9.40;99.90;;;;;;5009928;28;20195;-77
2021/05/07 07:26:32;;;;;;;10.25;8.93;;;9.40;99.90;;;;;;4961400;28;20669;-77
2021/05/07 07:28:57;;;;;;;10.43;9.10;;;9.40;99.90;;;;;;4995268;28;20270;-77
2021/05/07 07:31:25;;;;;;;12.30;9.13;;;9.50;99.90;;;;;;4995322;28;20174;-76
2021/05/07 07:33:54;;;;;;;10.48;9.55;;;9.60;99.90;;;;;;4995191;28;20201;-77
2021/05/07 07:36:20;;;;;;;11.70;10.60;;;9.80;99.90;;;;;;4945201;28;20277;-76
2021/05/07 07:38:48;;;;;;;13.67;12.27;;;10.10;99.90;;;;;;4977510;28;20202;-77
2021/05/07 07:41:14;;;;;;;13.32;11.40;;;10.30;99.90;;;;;;4977680;28;20199;-77
2021/05/07 07:43:46;;;;;;;14.13;12.67;;;10.50;99.90;;;;;;4977500;28;20642;-76
2021/05/07 07:46:23;;;;;;;14.65;13.18;;;10.60;99.90;;;;;;4961774;28;20537;-77
2021/05/07 07:48:57;;;;;;;13.13;11.95;;;10.80;99.90;;;;;;4977704;28;20174;-77
2021/05/07 07:51:39;;;;;;;15.27;13.80;;;10.80;99.90;;;;;;5005522;28;20170;-81
2021/05/07 07:54:11;;;;;;;16.95;14.23;;;10.90;99.90;;;;;;5010714;28;20258;-80
2021/05/07 07:56:37;;;;;;;15.77;14.25;;;10.90;99.90;;;;;;4971235;28;20266;-81
2021/05/07 07:59:12;;;;;;;14.90;13.43;;;10.90;99.90;;;;;;4993231;28;20205;-80
2021/05/07 08:01:53;;;;;;;16.85;14.88;;;10.90;99.90;;;;;;4979429;28;21248;-81
2021/05/07 08:04:22;;;;;;;12.98;11.60;;;10.90;99.90;;;;;;4994865;28;20301;-80
2021/05/07 08:06:48;;;;;;;13.55;10.73;;;10.90;99.90;;;;;;4980611;28;20175;-81
2021/05/07 08:09:37;;;;;;;11.23;8.95;;;10.80;99.90;;;;;;5008600;28;20178;-81
2021/05/07 08:12:08;;;;;;;6.18;5.57;;;10.70;99.90;;;;;;4978450;28;20646;-80
2021/05/07 08:14:39;;;;;;;4.53;3.75;;;10.50;99.90;;;;;;4995219;28;20551;-80
2021/05/07 08:17:09;;;;;;;2.95;2.75;;;10.10;99.90;;;;;;4977511;28;20210;-79
2021/05/07 08:19:35;;;;;;;4.90;3.30;;;9.80;99.90;;;;;;4977643;28;20249;-80
2021/05/07 08:22:03;;;;;;;3.00;2.33;;;9.40;99.90;;;;;;4977525;28;20194;-81
2021/05/07 08:24:29;;;;;;;4.53;2.95;;;9.20;99.90;;;;;;4996026;28;20191;-80
2021/05/07 08:26:58;;;;;;;4.57;4.18;;;9.00;99.90;;;;;;4981112;28;20196;-80
2021/05/07 08:29:24;;;;;;;3.58;3.00;;;8.80;99.90;;;;;;4983122;28;20180;-80
2021/05/07 08:31:50;;;;;;;4.53;4.13;;;8.60;99.90;;;;;;5000899;28;20187;-80
2021/05/07 08:34:16;;;;;;;4.77;4.37;;;8.50;99.90;;;;;;5005298;28;20183;-81
2021/05/07 08:36:42;;;;;;;3.58;3.28;;;8.50;99.90;;;;;;4994487;28;20210;-80
2021/05/07 08:39:08;;;;;;;3.85;3.55;;;8.40;99.90;;;;;;4996063;28;20183;-81
2021/05/07 08:41:36;;;;;;;5.25;4.75;;;8.40;99.90;;;;;;4981526;28;20178;-80
2021/05/07 08:44:02;;;;;;;5.20;4.70;;;8.40;99.90;;;;;;4998399;28;20163;-80
2021/05/07 08:46:28;;;;;;;4.50;4.10;;;8.40;99.90;;;;;;5000374;28;20481;-80
2021/05/07 08:48:55;;;;;;;5.03;4.57;;;8.40;99.90;;;;;;5015117;28;20194;-81
2021/05/07 08:51:21;;;;;;;4.80;4.40;;;8.50;99.90;;;;;;4999614;28;20174;-81
2021/05/07 08:53:49;;;;;;;4.23;3.47;;;8.60;99.90;;;;;;5016870;28;20171;-80
2021/05/07 08:56:15;;;;;;;3.90;3.60;;;8.90;99.90;;;;;;5000122;28;20620;-81
2021/05/07 08:58:40;;;;;;;6.30;4.40;;;9.30;99.90;;;;;;4999825;28;20203;-80
2021/05/07 09:01:06;;;;;;;4.27;3.97;;;9.60;99.90;;;;;;5016529;28;20229;-81
2021/05/07 09:03:47;;;;;;;4.73;4.33;;;9.80;99.90;;;;;;4999260;28;20203;-80
2021/05/07 09:06:21;;;;;;;4.07;3.67;;;10.10;99.90;;;;;;5012831;28;20210;-80
2021/05/07 09:08:48;;;;;;;4.13;3.83;;;10.40;99.90;;;;;;4999772;28;20179;-81
2021/05/07 09:11:15;;;;;;;3.53;3.22;;;10.80;99.90;;;;;;5013372;28;20418;-81
2021/05/07 09:13:41;;;;;;;3.58;3.28;;;11.40;99.90;;;;;;5009025;28;20263;-81
2021/05/07 09:16:11;;;;;;;2.70;2.50;;;12.10;99.90;;;;;;5015119;28;20174;-82
2021/05/07 09:18:47;;;;;;;3.17;2.88;;;12.70;99.90;;;;;;5014871;28;20203;-80
2021/05/07 09:21:16;;;;;;;2.95;2.58;;;13.30;99.90;;;;;;5014433;28;20175;-81
2021/05/07 09:23:44;;;;;;;2.80;1.83;;;14.10;99.90;;;;;;4996634;28;20183;-80
2021/05/07 09:26:10;;;;;;;2.43;2.23;;;14.70;99.90;;;;;;4998456;28;20601;-81
2021/05/07 09:28:37;;;;;;;2.50;2.30;;;15.10;99.90;;;;;;4997685;28;20593;-81
2021/05/07 09:31:14;;;;;;;2.33;2.13;;;15.40;99.90;;;;;;5005603;28;20661;-81
2021/05/07 09:33:48;;;;;;;2.87;2.67;;;15.70;99.90;;;;;;5026934;28;20588;-81
2021/05/07 09:36:40;;;;;;;3.43;3.13;;;15.90;99.90;;;;;;5033627;28;20570;-81
2021/05/07 09:39:17;;;;;;;3.58;2.90;;;15.80;99.90;;;;;;5031576;28;20728;-81
2021/05/07 09:41:44;;;;;;;3.23;3.03;;;15.70;99.90;;;;;;5014301;28;20644;-82
2021/05/07 09:44:26;;;;;;;3.40;3.10;;;15.50;99.90;;;;;;4998323;28;20957;-83
2021/05/07 09:46:54;;;;;;;3.22;2.58;;;15.30;99.90;;;;;;4958907;28;20917;-82
2021/05/07 09:49:22;;;;;;;3.65;3.35;;;15.10;99.90;;;;;;4990704;28;20266;-83
2021/05/07 09:51:48;;;;;;;2.70;2.50;;;14.80;99.90;;;;;;4975257;28;20229;-82
2021/05/07 09:54:14;;;;;;;3.60;3.30;;;14.50;99.90;;;;;;5000716;28;20254;-82
2021/05/07 09:56:40;;;;;;;2.87;2.67;;;14.60;99.90;;;;;;5012593;28;20261;-82
2021/05/07 09:59:06;;;;;;;3.17;2.83;;;14.70;99.90;;;;;;5012399;28;20217;-82
2021/05/07 10:01:32;;;;;;;3.77;2.83;;;14.90;99.90;;;;;;5012399;28;20569;-82
2021/05/07 10:03:59;;;;;;;2.83;2.63;;;15.10;99.90;;;;;;4994717;28;20799;-82
2021/05/07 10:06:28;;;;;;;3.20;2.47;;;15.40;99.90;;;;;;4993555;28;20571;-81
2021/05/07 10:08:54;;;;;;;4.00;2.80;;;15.60;99.90;;;;;;4978180;28;20732;-82
2021/05/07 10:11:22;;;;;;;3.03;2.57;;;15.70;99.90;;;;;;4997487;28;20582;-82
2021/05/07 10:13:51;;;;;;;4.13;3.03;;;15.80;99.90;;;;;;4994740;28;20648;-81
2021/05/07 10:16:28;;;;;;;3.20;1.80;;;16.20;99.90;;;;;;4995058;28;20621;-82
2021/05/07 10:19:01;;;;;;;7.13;2.17;;;16.90;99.90;;;;;;4977518;28;20653;-82
2021/05/07 10:22:03;;;;;;;2.43;1.27;;;17.70;99.90;;;;;;4996299;28;21002;-82
2021/05/07 10:24:38;;;;;;;1.83;1.00;;;18.20;99.90;;;;;;4992202;28;20613;-82
2021/05/07 10:27:42;;;;;;;2.00;1.10;;;18.30;99.90;;;;;;4974495;28;20574;-82
2021/05/07 10:30:09;;;;;;;1.70;0.90;;;18.80;99.80;;;;;;4963037;28;20692;-82
2021/05/07 10:32:37;;;;;;;1.30;0.80;;;19.20;98.60;;;;;;4992807;28;20577;-82
2021/05/07 10:35:05;;;;;;;1.80;1.70;;;19.10;97.40;;;;;;4995716;28;20594;-82
2021/05/07 10:37:41;;;;;;;1.90;1.10;;;18.90;95.90;;;;;;4975356;28;20590;-82
2021/05/07 10:40:08;;;;;;;2.43;0.90;;;18.60;94.70;;;;;;4992223;28;20622;-82
2021/05/07 10:42:34;;;;;;;2.33;0.90;;;18.80;96.50;;;;;;4975056;28;20570;-82
2021/05/07 10:45:00;;;;;;;1.30;0.70;;;19.10;96.80;;;;;;4982563;28;20610;-81
2021/05/07 10:47:36;;;;;;;2.03;1.00;;;19.40;97.00;;;;;;4993770;28;20178;-82
2021/05/07 10:50:16;;;;;;;1.40;0.80;;;19.70;96.50;;;;;;4975717;28;20611;-82
2021/05/07 10:52:42;;;;;;;1.20;0.70;;;20.10;95.50;;;;;;4994270;28;20609;-81
2021/05/07 10:55:08;;;;;;;1.50;0.70;;;20.40;95.40;;;;;;4993905;28;21185;-81
2021/05/07 10:57:38;;;;;;;2.20;0.70;;;20.60;94.00;;;;;;4995375;28;20253;-81
2021/05/07 11:00:16;;;;;;;3.00;0.80;;;20.50;91.90;;;;;;4997957;28;20688;-82
2021/05/07 11:02:47;;;;;;;1.77;0.80;;;20.20;87.80;;;;;;5007197;28;20567;-82
2021/05/07 11:05:34;;;;;;;2.73;0.80;;;19.60;83.50;;;;;;4997252;28;20613;-81
2021/05/07 11:08:00;;;;;;;1.77;0.80;;;19.00;81.60;;;;;;4977666;28;20616;-82
2021/05/07 11:10:27;;;;;;;1.37;0.70;;;18.50;84.70;;;;;;4994543;28;20558;-81
2021/05/07 11:12:53;;;;;;;2.83;0.73;;;18.50;89.20;;;;;;4961733;28;20598;-82
2021/05/07 11:15:19;;;;;;;1.63;0.70;;;18.70;90.90;;;;;;4993595;28;20954;-81
2021/05/07 11:17:45;;;;;;;1.40;0.80;;;18.90;90.40;;;;;;4995850;28;20921;-81
2021/05/07 11:20:11;;;;;;;1.50;0.83;;;19.10;83.90;;;;;;4983171;28;20622;-81
2021/05/07 11:22:40;;;;;;;1.93;0.70;;;19.00;84.50;;;;;;4984591;28;20163;-82
2021/05/07 11:25:07;;;;;;;1.30;0.80;;;18.80;83.10;;;;;;4995188;28;20597;-82
2021/05/07 11:27:37;;;;;;;1.77;0.80;;;18.60;82.40;;;;;;4976659;28;20665;-81
2021/05/07 11:30:03;;;;;;;1.53;0.70;;;18.40;80.30;;;;;;4994997;28;20562;-81
2021/05/07 11:32:29;;;;;;;1.43;1.10;;;18.10;78.90;;;;;;4979269;28;20670;-81
2021/05/07 11:35:00;;;;;;;1.53;0.93;;;17.80;79.90;;;;;;4998542;28;20198;-81
2021/05/07 11:37:29;;;;;;;2.20;0.90;;;17.60;80.70;;;;;;4981955;28;21203;-81
2021/05/07 11:39:58;;;;;;;1.30;0.90;;;17.60;82.10;;;;;;5002830;28;21082;-81
2021/05/07 11:42:27;;;;;;;2.47;1.10;;;17.60;82.00;;;;;;5005183;28;20570;-81
2021/05/07 11:44:53;;;;;;;1.87;1.00;;;17.60;81.50;;;;;;4987108;28;20606;-80
2021/05/07 11:47:22;;;;;;;1.57;0.90;;;17.50;80.30;;;;;;4984085;28;20612;-80
2021/05/07 11:49:50;;;;;;;2.33;1.20;;;17.40;76.70;;;;;;5003608;28;20613;-82
2021/05/07 11:52:16;;;;;;;1.93;0.90;;;17.40;77.40;;;;;;4985498;28;20175;-82
2021/05/07 11:54:46;;;;;;;3.03;0.90;;;17.40;80.20;;;;;;5000651;28;20608;-82
2021/05/07 11:57:20;;;;;;;1.97;0.80;;;17.50;80.60;;;;;;4981646;28;20592;-82
2021/05/07 11:59:50;;;;;;;2.23;0.90;;;17.60;80.00;;;;;;5001572;28;20629;-81
2021/05/07 12:02:21;;;;;;;1.40;0.80;;;17.70;78.20;;;;;;4980373;28;21074;-81
2021/05/07 12:04:47;;;;;;;1.30;0.80;;;17.70;77.50;;;;;;4951475;28;20625;-81
2021/05/07 12:07:43;;;;;;;2.90;1.30;;;17.60;77.10;;;;;;4998702;28;20573;-82
2021/05/07 12:10:09;;;;;;;3.30;1.20;;;17.50;75.80;;;;;;4962645;28;20592;-82
2021/05/07 12:12:42;;;;;;;3.30;2.03;;;17.30;75.80;;;;;;4985091;28;20594;-82
2021/05/07 12:15:11;;;;;;;3.90;1.67;;;17.10;75.70;;;;;;5001655;28;20641;-81
2021/05/07 12:17:48;;;;;;;1.70;1.10;;;16.90;75.00;;;;;;5001079;28;20574;-81
2021/05/07 12:20:20;;;;;;;1.40;0.90;;;16.80;75.20;;;;;;5000182;28;20621;-82
2021/05/07 12:22:52;;;;;;;1.80;1.00;;;16.90;79.40;;;;;;4982177;28;20567;-82
2021/05/07 12:25:26;;;;;;;1.40;1.00;;;17.10;82.20;;;;;;5001168;28;20696;-82
2021/05/07 12:27:54;;;;;;;3.47;1.00;;;17.30;81.50;;;;;;5003813;28;20561;-81
2021/05/07 12:30:21;;;;;;;1.50;1.10;;;17.50;82.60;;;;;;5000170;28;20570;-81
2021/05/07 12:33:06;;;;;;;1.60;1.03;;;17.60;81.50;;;;;;5002226;28;20658;-81
2021/05/07 12:35:50;;;;;;;2.50;1.87;;;17.70;81.50;;;;;;5004423;28;20818;-82
2021/05/07 12:38:29;;;;;;;2.70;1.37;;;17.90;77.90;;;;;;5003740;28;20570;-81
2021/05/07 12:40:58;;;;;;;1.73;1.00;;;17.90;77.60;;;;;;4973305;28;20566;-81
2021/05/07 12:43:24;;;;;;;2.30;1.20;;;17.80;75.00;;;;;;4983068;28;20578;-82
2021/05/07 12:45:52;;;;;;;2.20;1.57;;;17.60;73.80;;;;;;5001938;28;20694;-82